Time;durP1;ratioP1;P1;durP2;ratioP2;P2;SDS_P1;SDS_P2;PMS_P1;PMS_P2;Temp;Humidity;BMP_temperature;BMP_pressure;BME280_temperature;BME280_humidity;BME280_pressure;Samples;Min_cycle;Max_cycle;Signal;HPM_P1;HPM_P2
2022/03/12 00:01:17;;;;;;;3.10;2.67;;;;;;;;;;5029960;28;20856;-80
2022/03/12 00:03:45;;;;;;;5.33;2.70;;;;;;;;;;5029342;28;20451;-80
2022/03/12 00:06:12;;;;;;;2.70;2.13;;;;;;;;;;5030008;28;21007;-80
2022/03/12 00:08:42;;;;;;;3.00;2.43;;;;;;;;;;5029406;28;20442;-80
2022/03/12 00:11:13;;;;;;;3.07;2.73;;;;;;;;;;5029230;28;20902;-80
2022/03/12 00:13:40;;;;;;;3.10;2.80;;;;;;;;;;5029534;28;20969;-80
2022/03/12 00:16:13;;;;;;;3.10;2.60;;;;;;;;;;5029073;28;20540;-80
2022/03/12 00:18:42;;;;;;;3.00;2.60;;;;;;;;;;5029662;28;20441;-80
2022/03/12 00:21:12;;;;;;;4.97;3.37;;;;;;;;;;5029097;28;20487;-80
2022/03/12 00:23:41;;;;;;;3.27;2.83;;;;;;;;;;5029249;28;20438;-80
2022/03/12 00:26:08;;;;;;;6.77;3.53;;;;;;;;;;5029353;28;20949;-80
2022/03/12 00:28:37;;;;;;;4.20;3.03;;;;;;;;;;5029261;28;20441;-80
2022/03/12 00:31:04;;;;;;;4.23;3.83;;;;;;;;;;5029297;28;20524;-80
2022/03/12 00:33:31;;;;;;;4.53;3.07;;;;;;;;;;5029012;28;20544;-80
2022/03/12 00:35:59;;;;;;;4.07;3.57;;;;;;;;;;5029147;28;20449;-80
2022/03/12 00:38:26;;;;;;;4.20;3.10;;;;;;;;;;5029291;28;20442;-80
2022/03/12 00:40:53;;;;;;;3.20;2.77;;;;;;;;;;5028862;28;20544;-80
2022/03/12 00:43:20;;;;;;;4.80;2.73;;;;;;;;;;5028935;28;20476;-80
2022/03/12 00:45:50;;;;;;;4.50;3.27;;;;;;;;;;5029054;28;20545;-80
2022/03/12 00:48:17;;;;;;;3.47;2.90;;;;;;;;;;5029076;28;20524;-80
2022/03/12 00:50:44;;;;;;;3.27;2.73;;;;;;;;;;5028772;28;20440;-80
2022/03/12 00:53:11;;;;;;;3.37;3.07;;;;;;;;;;5029236;28;20441;-79
2022/03/12 00:55:39;;;;;;;3.00;2.70;;;;;;;;;;5029196;28;20465;-80
2022/03/12 00:58:06;;;;;;;3.13;2.83;;;;;;;;;;5028881;28;20924;-80
2022/03/12 01:00:34;;;;;;;3.17;2.87;;;;;;;;;;5028826;28;20488;-80
2022/03/12 01:03:02;;;;;;;4.10;3.27;;;;;;;;;;5028599;28;20477;-80
2022/03/12 01:05:44;;;;;;;5.10;3.47;;;;;;;;;;5029081;28;20540;-80
2022/03/12 01:08:12;;;;;;;4.07;3.00;;;;;;;;;;5028764;28;20536;-80
2022/03/12 01:10:39;;;;;;;5.13;3.30;;;;;;;;;;5028663;28;20901;-80
2022/03/12 01:13:06;;;;;;;4.97;3.70;;;;;;;;;;5028604;28;20495;-80
2022/03/12 01:15:34;;;;;;;3.87;3.33;;;;;;;;;;5029030;28;20898;-80
2022/03/12 01:18:03;;;;;;;7.43;3.07;;;;;;;;;;5028350;28;20981;-80
2022/03/12 01:20:31;;;;;;;5.30;2.70;;;;;;;;;;5028372;28;20544;-80
2022/03/12 01:22:58;;;;;;;3.20;3.00;;;;;;;;;;5028370;28;20572;-80
2022/03/12 01:25:26;;;;;;;3.83;2.87;;;;;;;;;;5028506;28;20441;-80
2022/03/12 01:27:54;;;;;;;5.13;2.83;;;;;;;;;;5030441;28;20454;-80
2022/03/12 01:30:28;;;;;;;3.60;3.30;;;;;;;;;;5031830;28;21000;-80
2022/03/12 01:32:56;;;;;;;3.13;2.83;;;;;;;;;;5032175;28;20429;-81
2022/03/12 01:35:25;;;;;;;3.10;2.80;;;;;;;;;;5031846;28;20445;-80
2022/03/12 01:37:52;;;;;;;4.30;3.10;;;;;;;;;;5031486;28;20532;-79
2022/03/12 01:40:19;;;;;;;4.10;3.33;;;;;;;;;;5031830;28;20533;-80
2022/03/12 01:42:47;;;;;;;5.23;3.33;;;;;;;;;;5031792;28;20473;-79
2022/03/12 01:45:15;;;;;;;4.03;3.27;;;;;;;;;;5032016;28;20441;-80
2022/03/12 01:47:42;;;;;;;3.57;3.00;;;;;;;;;;5031651;28;20524;-80
2022/03/12 01:50:10;;;;;;;3.23;2.93;;;;;;;;;;5031552;28;20536;-80
2022/03/12 01:52:38;;;;;;;3.60;3.20;;;;;;;;;;5031786;28;20516;-79
2022/03/12 01:55:06;;;;;;;3.87;3.40;;;;;;;;;;5031651;28;20903;-80
2022/03/12 01:57:34;;;;;;;4.17;3.10;;;;;;;;;;5031772;28;20894;-80
2022/03/12 02:00:01;;;;;;;4.40;3.50;;;;;;;;;;5031408;28;20470;-79
2022/03/12 02:02:29;;;;;;;8.23;3.90;;;;;;;;;;5031251;28;20524;-79
2022/03/12 02:04:56;;;;;;;4.40;3.20;;;;;;;;;;5031838;28;20449;-79
2022/03/12 02:07:23;;;;;;;3.27;2.90;;;;;;;;;;5031284;28;20449;-79
2022/03/12 02:09:52;;;;;;;3.80;3.30;;;;;;;;;;5031452;28;20545;-79
2022/03/12 02:12:19;;;;;;;3.70;3.40;;;;;;;;;;5031171;28;21056;-80
2022/03/12 02:14:47;;;;;;;4.33;3.03;;;;;;;;;;5031339;28;20530;-79
2022/03/12 02:17:14;;;;;;;4.80;4.27;;;;;;;;;;5031101;28;20543;-80
2022/03/12 02:19:42;;;;;;;4.83;3.43;;;;;;;;;;5031352;28;20858;-79
2022/03/12 02:22:10;;;;;;;3.67;3.03;;;;;;;;;;5031115;28;20567;-80
2022/03/12 02:24:39;;;;;;;4.17;3.33;;;;;;;;;;5031181;28;20454;-80
2022/03/12 02:27:10;;;;;;;3.93;3.37;;;;;;;;;;5030772;28;20946;-80
2022/03/12 02:29:38;;;;;;;3.77;3.47;;;;;;;;;;5031219;28;20473;-80
2022/03/12 02:32:09;;;;;;;5.70;3.27;;;;;;;;;;5031334;28;20872;-80
2022/03/12 02:34:39;;;;;;;3.43;3.13;;;;;;;;;;5031166;28;20453;-80
2022/03/12 02:37:07;;;;;;;4.47;3.80;;;;;;;;;;5030948;28;20828;-80
2022/03/12 02:39:37;;;;;;;4.73;3.60;;;;;;;;;;5031168;28;20445;-80
2022/03/12 02:42:09;;;;;;;4.13;3.53;;;;;;;;;;5030490;28;20922;-79
2022/03/12 02:44:36;;;;;;;4.23;3.20;;;;;;;;;;5030946;28;20473;-80
2022/03/12 02:47:22;;;;;;;3.37;3.07;;;;;;;;;;5030936;28;20536;-79
2022/03/12 02:49:50;;;;;;;3.17;2.90;;;;;;;;;;5031185;28;20434;-79
2022/03/12 02:52:18;;;;;;;3.27;2.97;;;;;;;;;;5030390;28;20540;-80
2022/03/12 02:54:47;;;;;;;4.63;3.77;;;;;;;;;;5030749;28;20949;-80
2022/03/12 02:57:17;;;;;;;4.27;3.77;;;;;;;;;;5030688;28;20506;-79
2022/03/12 02:59:50;;;;;;;4.30;3.87;;;;;;;;;;5030706;28;20488;-80
2022/03/12 03:02:18;;;;;;;3.93;3.53;;;;;;;;;;5030462;28;21008;-79
2022/03/12 03:04:46;;;;;;;4.10;3.70;;;;;;;;;;5030888;28;20517;-80
2022/03/12 03:07:14;;;;;;;4.93;2.93;;;;;;;;;;5030263;28;20541;-79
2022/03/12 03:09:41;;;;;;;4.77;3.93;;;;;;;;;;5030438;28;20485;-80
2022/03/12 03:12:10;;;;;;;4.03;3.10;;;;;;;;;;5030515;28;20544;-79
2022/03/12 03:14:49;;;;;;;4.07;2.93;;;;;;;;;;5030396;28;20502;-80
2022/03/12 03:17:16;;;;;;;4.27;3.57;;;;;;;;;;5030018;28;20572;-79
2022/03/12 03:19:44;;;;;;;7.00;3.30;;;;;;;;;;5030283;28;20437;-80
2022/03/12 03:22:13;;;;;;;4.63;3.20;;;;;;;;;;5029982;28;20473;-79
2022/03/12 03:24:40;;;;;;;3.83;3.43;;;;;;;;;;5030151;28;20445;-80
2022/03/12 03:27:08;;;;;;;3.87;3.40;;;;;;;;;;5030100;28;20452;-80
2022/03/12 03:29:35;;;;;;;4.80;3.87;;;;;;;;;;5030409;28;20493;-79
2022/03/12 03:32:05;;;;;;;5.47;3.67;;;;;;;;;;5030014;28;20476;-79
2022/03/12 03:34:33;;;;;;;5.83;3.93;;;;;;;;;;5030165;28;20430;-79
2022/03/12 03:37:00;;;;;;;3.97;3.50;;;;;;;;;;5030096;28;20528;-79
2022/03/12 03:39:28;;;;;;;5.20;2.93;;;;;;;;;;5029939;28;20481;-79
2022/03/12 03:41:55;;;;;;;5.07;3.70;;;;;;;;;;5029744;28;20540;-80
2022/03/12 03:44:27;;;;;;;4.60;3.80;;;;;;;;;;5030243;28;20446;-80
2022/03/12 03:46:54;;;;;;;6.13;3.23;;;;;;;;;;5029580;28;20430;-80
2022/03/12 03:49:24;;;;;;;7.30;3.80;;;;;;;;;;5029310;28;20536;-79
2022/03/12 03:51:52;;;;;;;6.00;4.13;;;;;;;;;;5029685;28;20448;-79
2022/03/12 03:54:19;;;;;;;4.67;3.70;;;;;;;;;;5030035;28;20469;-80
2022/03/12 03:56:46;;;;;;;7.27;4.03;;;;;;;;;;5029872;28;20520;-80
2022/03/12 03:59:14;;;;;;;4.27;3.63;;;;;;;;;;5029497;28;20459;-80
2022/03/12 04:01:41;;;;;;;3.97;3.47;;;;;;;;;;5029602;28;20460;-80
2022/03/12 04:04:12;;;;;;;3.47;3.13;;;;;;;;;;5029493;28;20851;-80
2022/03/12 04:06:41;;;;;;;5.93;4.00;;;;;;;;;;5030175;28;20466;-80
2022/03/12 04:09:08;;;;;;;3.43;2.97;;;;;;;;;;5029635;28;20490;-80
2022/03/12 04:11:35;;;;;;;4.37;3.83;;;;;;;;;;5029665;28;20524;-80
2022/03/12 04:14:05;;;;;;;4.13;3.73;;;;;;;;;;5029523;28;20502;-80
2022/03/12 04:16:33;;;;;;;5.10;3.83;;;;;;;;;;5029215;28;20906;-80
2022/03/12 04:19:05;;;;;;;4.90;3.77;;;;;;;;;;5029297;28;20442;-80
2022/03/12 04:21:33;;;;;;;4.87;3.83;;;;;;;;;;5029103;28;20441;-80
2022/03/12 04:24:02;;;;;;;5.83;3.33;;;;;;;;;;5029449;28;20572;-80
2022/03/12 04:26:30;;;;;;;7.97;4.57;;;;;;;;;;5029504;28;20449;-80
2022/03/12 04:28:58;;;;;;;4.87;3.57;;;;;;;;;;5029163;28;20962;-80
2022/03/12 04:31:26;;;;;;;5.10;4.60;;;;;;;;;;5028971;28;20444;-80
2022/03/12 04:33:53;;;;;;;5.23;4.03;;;;;;;;;;5029485;28;20444;-79
2022/03/12 04:36:20;;;;;;;8.07;4.03;;;;;;;;;;5029426;28;20472;-79
2022/03/12 04:38:49;;;;;;;3.80;3.50;;;;;;;;;;5029014;28;21016;-79
2022/03/12 04:41:19;;;;;;;5.93;4.00;;;;;;;;;;5029432;28;20829;-79
2022/03/12 04:43:48;;;;;;;4.83;3.93;;;;;;;;;;5028753;28;20560;-79
2022/03/12 04:46:16;;;;;;;5.50;4.57;;;;;;;;;;5029115;28;20446;-79
2022/03/12 04:48:43;;;;;;;5.83;4.27;;;;;;;;;;5028853;28;20485;-80
2022/03/12 04:51:10;;;;;;;7.53;4.90;;;;;;;;;;5029342;28;20474;-80
2022/03/12 04:53:38;;;;;;;5.47;4.23;;;;;;;;;;5028654;28;20473;-80
2022/03/12 04:56:06;;;;;;;5.17;4.17;;;;;;;;;;5028911;28;20441;-80
2022/03/12 04:58:34;;;;;;;5.93;4.73;;;;;;;;;;5026822;28;20816;-79
2022/03/12 05:01:02;;;;;;;4.33;3.93;;;;;;;;;;5048041;28;20444;-79
2022/03/12 05:03:29;;;;;;;6.93;4.87;;;;;;;;;;5051283;28;20484;-79
2022/03/12 05:06:00;;;;;;;4.70;4.20;;;;;;;;;;5052461;28;20827;-79
2022/03/12 05:08:30;;;;;;;6.27;5.00;;;;;;;;;;5051805;28;20428;-79
2022/03/12 05:10:58;;;;;;;5.43;4.40;;;;;;;;;;5044805;28;20456;-79
2022/03/12 05:13:27;;;;;;;7.23;5.67;;;;;;;;;;5051763;28;20447;-79
2022/03/12 05:15:57;;;;;;;7.30;5.87;;;;;;;;;;5052512;28;20448;-79
2022/03/12 05:18:26;;;;;;;7.53;5.07;;;;;;;;;;5051661;28;20570;-80
2022/03/12 05:20:54;;;;;;;9.23;7.87;;;;;;;;;;5051699;28;20448;-79
2022/03/12 05:23:21;;;;;;;5.87;5.27;;;;;;;;;;5051380;28;20479;-79
2022/03/12 05:25:50;;;;;;;8.43;5.47;;;;;;;;;;5051692;28;20433;-79
2022/03/12 05:28:20;;;;;;;9.93;5.43;;;;;;;;;;5051574;28;21037;-79
2022/03/12 05:30:48;;;;;;;6.23;4.50;;;;;;;;;;5051241;28;20475;-79
2022/03/12 05:33:18;;;;;;;6.17;5.00;;;;;;;;;;5051095;28;20764;-78
2022/03/12 05:35:46;;;;;;;4.93;4.43;;;;;;;;;;5052407;28;20467;-80
2022/03/12 05:38:14;;;;;;;6.27;5.00;;;;;;;;;;5051435;28;20443;-79
2022/03/12 05:40:42;;;;;;;5.33;4.23;;;;;;;;;;5051352;28;20957;-79
2022/03/12 05:43:11;;;;;;;8.77;4.57;;;;;;;;;;5051103;28;20487;-80
2022/03/12 05:45:39;;;;;;;6.13;4.60;;;;;;;;;;5051742;28;20436;-79
2022/03/12 05:48:09;;;;;;;7.07;4.70;;;;;;;;;;5051601;28;20494;-79
2022/03/12 05:50:38;;;;;;;6.00;4.30;;;;;;;;;;5051344;28;20493;-79
2022/03/12 05:53:07;;;;;;;5.73;4.83;;;;;;;;;;5051164;28;20483;-79
2022/03/12 05:55:35;;;;;;;8.40;4.90;;;;;;;;;;5051460;28;20487;-79
2022/03/12 05:58:02;;;;;;;4.03;3.60;;;;;;;;;;5051062;28;20501;-79
2022/03/12 06:00:31;;;;;;;5.20;4.70;;;;;;;;;;5051165;28;20444;-79
2022/03/12 06:02:59;;;;;;;6.57;5.40;;;;;;;;;;5051103;28;20476;-79
2022/03/12 06:05:27;;;;;;;7.13;4.63;;;;;;;;;;5051249;28;20509;-80
2022/03/12 06:07:56;;;;;;;5.03;4.53;;;;;;;;;;5051648;28;20537;-79
2022/03/12 06:10:25;;;;;;;6.90;5.03;;;;;;;;;;5050995;28;20544;-78
2022/03/12 06:12:53;;;;;;;5.67;4.03;;;;;;;;;;5050466;28;20967;-79
2022/03/12 06:15:22;;;;;;;4.57;4.00;;;;;;;;;;5051201;28;20448;-78
2022/03/12 06:17:50;;;;;;;5.80;4.87;;;;;;;;;;5050569;28;20515;-78
2022/03/12 06:20:20;;;;;;;5.50;5.00;;;;;;;;;;5045511;28;20956;-79
2022/03/12 06:22:48;;;;;;;5.43;4.07;;;;;;;;;;5031016;28;20457;-78
2022/03/12 06:25:18;;;;;;;4.93;4.43;;;;;;;;;;5031032;28;20464;-78
2022/03/12 06:27:47;;;;;;;6.33;4.80;;;;;;;;;;5031001;28;20472;-78
2022/03/12 06:30:15;;;;;;;6.53;4.80;;;;;;;;;;5031307;28;20434;-78
2022/03/12 06:32:43;;;;;;;6.53;5.93;;;;;;;;;;5030882;28;20433;-78
2022/03/12 06:35:11;;;;;;;6.03;4.60;;;;;;;;;;5031169;28;20912;-78
2022/03/12 06:37:39;;;;;;;6.77;4.57;;;;;;;;;;5030871;28;20523;-78
2022/03/12 06:40:08;;;;;;;9.90;5.37;;;;;;;;;;5030721;28;20794;-77
2022/03/12 06:42:37;;;;;;;5.40;4.87;;;;;;;;;;5030992;28;20472;-78
2022/03/12 06:45:05;;;;;;;8.47;6.07;;;;;;;;;;5030786;28;20477;-77
2022/03/12 06:47:33;;;;;;;6.67;5.33;;;;;;;;;;5030256;28;20859;-78
2022/03/12 06:50:02;;;;;;;20.63;13.67;;;;;;;;;;5030695;28;20965;-78
2022/03/12 06:52:30;;;;;;;19.43;12.17;;;;;;;;;;5030866;28;20540;-78
2022/03/12 06:54:57;;;;;;;28.33;18.90;;;;;;;;;;5030544;28;20532;-79
2022/03/12 06:57:24;;;;;;;15.73;12.70;;;;;;;;;;5030202;28;20442;-79
2022/03/12 06:59:53;;;;;;;9.13;7.00;;;;;;;;;;5030527;28;20456;-79
2022/03/12 07:02:20;;;;;;;12.03;8.03;;;;;;;;;;5030182;28;20449;-79
2022/03/12 07:04:47;;;;;;;17.30;10.73;;;;;;;;;;5030506;28;20524;-79
2022/03/12 07:07:15;;;;;;;6.40;5.80;;;;;;;;;;5030040;28;20454;-79
2022/03/12 07:09:42;;;;;;;12.67;9.90;;;;;;;;;;5030472;28;20622;-79
2022/03/12 07:12:11;;;;;;;6.10;5.50;;;;;;;;;;5030106;28;20449;-79
2022/03/12 07:14:38;;;;;;;15.37;9.37;;;;;;;;;;5030432;28;20486;-80
2022/03/12 07:17:07;;;;;;;11.90;7.83;;;;;;;;;;5029755;28;21041;-80
2022/03/12 07:19:34;;;;;;;6.67;5.23;;;;;;;;;;5030243;28;20477;-80
2022/03/12 07:22:02;;;;;;;8.40;6.77;;;;;;;;;;5030132;28;20473;-80
2022/03/12 07:24:30;;;;;;;13.97;8.57;;;;;;;;;;5029223;28;20485;-81
2022/03/12 07:26:57;;;;;;;12.63;7.90;;;;;;;;;;5029774;28;20444;-80
2022/03/12 07:29:26;;;;;;;8.03;6.00;;;;;;;;;;5030263;28;20437;-80
2022/03/12 07:31:53;;;;;;;23.00;13.37;;;;;;;;;;5029930;28;20520;-80
2022/03/12 07:34:22;;;;;;;10.47;5.63;;;;;;;;;;5030155;28;20993;-80
2022/03/12 07:36:49;;;;;;;7.77;5.53;;;;;;;;;;5029561;28;20542;-80
2022/03/12 07:39:16;;;;;;;5.80;5.23;;;;;;;;;;5030123;28;20493;-80
2022/03/12 07:41:44;;;;;;;5.87;5.13;;;;;;;;;;5029999;28;20893;-80
2022/03/12 07:44:11;;;;;;;10.27;5.87;;;;;;;;;;5029743;28;21045;-80
2022/03/12 07:46:38;;;;;;;12.50;6.67;;;;;;;;;;5029668;28;20445;-81
2022/03/12 07:49:05;;;;;;;9.97;6.67;;;;;;;;;;5029480;28;20687;-81
2022/03/12 07:51:35;;;;;;;8.73;5.13;;;;;;;;;;5029649;28;20536;-80
2022/03/12 07:54:06;;;;;;;8.47;5.30;;;;;;;;;;5029698;28;20205;-80
2022/03/12 07:56:35;;;;;;;7.77;6.23;;;;;;;;;;5029506;28;20186;-80
2022/03/12 07:59:03;;;;;;;6.77;5.33;;;;;;;;;;5029703;28;20194;-81
2022/03/12 08:01:30;;;;;;;5.90;4.97;;;;;;;;;;5029560;28;20485;-80
2022/03/12 08:03:58;;;;;;;10.27;8.20;;;;;;;;;;5029671;28;20321;-81
2022/03/12 08:06:26;;;;;;;8.50;6.77;;;;;;;;;;5029599;28;20203;-80
2022/03/12 08:08:55;;;;;;;6.60;4.90;;;;;;;;;;5029825;28;20194;-81
2022/03/12 08:11:29;;;;;;;9.83;7.73;;;;;;;;;;5029451;28;20290;-81
2022/03/12 08:14:02;;;;;;;7.20;5.20;;;;;;;;;;5029851;28;20483;-81
2022/03/12 08:16:29;;;;;;;6.27;5.33;;;;;;;;;;5028940;28;20242;-80
2022/03/12 08:18:57;;;;;;;8.20;5.43;;;;;;;;;;5029366;28;20438;-82
2022/03/12 08:21:25;;;;;;;6.23;5.40;;;;;;;;;;5029365;28;20484;-80
2022/03/12 08:23:55;;;;;;;4.87;4.20;;;;;;;;;;5029206;28;20481;-80
2022/03/12 08:26:23;;;;;;;7.50;4.97;;;;;;;;;;5029224;28;20441;-80
2022/03/12 08:28:50;;;;;;;9.17;5.93;;;;;;;;;;5029267;28;20544;-80
2022/03/12 08:31:18;;;;;;;8.37;4.53;;;;;;;;;;5029213;28;20450;-80
2022/03/12 08:33:46;;;;;;;6.80;4.10;;;;;;;;;;5027447;28;20452;-79
2022/03/12 08:36:14;;;;;;;7.57;5.20;;;;;;;;;;5028953;28;20441;-80
2022/03/12 08:38:41;;;;;;;5.57;4.47;;;;;;;;;;5028416;28;20875;-80
2022/03/12 08:41:11;;;;;;;6.73;4.27;;;;;;;;;;5028612;28;20202;-80
2022/03/12 08:43:40;;;;;;;4.27;3.43;;;;;;;;;;5028743;28;20944;-80
2022/03/12 08:46:08;;;;;;;6.20;4.63;;;;;;;;;;5028946;28;20476;-80
2022/03/12 08:48:36;;;;;;;4.37;3.90;;;;;;;;;;5029080;28;20203;-80
2022/03/12 08:51:03;;;;;;;4.63;4.13;;;;;;;;;;5029022;28;20445;-80
2022/03/12 08:53:30;;;;;;;5.53;4.23;;;;;;;;;;5028742;28;20579;-80
2022/03/12 08:56:00;;;;;;;6.97;4.20;;;;;;;;;;5029106;28;20645;-80
2022/03/12 08:58:29;;;;;;;4.70;4.07;;;;;;;;;;5028537;28;20202;-81
2022/03/12 09:00:56;;;;;;;7.33;4.53;;;;;;;;;;5028840;28;20859;-80
2022/03/12 09:03:24;;;;;;;5.83;4.30;;;;;;;;;;5028789;28;20473;-80
2022/03/12 09:05:52;;;;;;;5.40;4.47;;;;;;;;;;5028447;28;20572;-80
2022/03/12 09:08:19;;;;;;;10.57;5.73;;;;;;;;;;5028511;28;20481;-80
2022/03/12 09:10:47;;;;;;;6.17;5.47;;;;;;;;;;5029003;28;20199;-81
2022/03/12 09:13:18;;;;;;;5.67;4.70;;;;;;;;;;5028644;28;20536;-81
2022/03/12 09:15:47;;;;;;;5.70;4.77;;;;;;;;;;5028487;28;20570;-80
2022/03/12 09:18:15;;;;;;;9.77;5.80;;;;;;;;;;5028294;28;20325;-81
2022/03/12 09:20:46;;;;;;;4.80;4.33;;;;;;;;;;5028589;28;20199;-81
2022/03/12 09:23:14;;;;;;;3.63;3.33;;;;;;;;;;5027458;28;20187;-81
2022/03/12 09:25:42;;;;;;;4.10;3.80;;;;;;;;;;5028032;28;20304;-81
2022/03/12 09:28:09;;;;;;;5.87;4.03;;;;;;;;;;5028402;28;20209;-81
2022/03/12 09:30:37;;;;;;;6.83;4.20;;;;;;;;;;5028783;28;20221;-81
2022/03/12 09:33:06;;;;;;;9.53;8.03;;;;;;;;;;5028433;28;20293;-81
2022/03/12 09:35:34;;;;;;;7.50;5.87;;;;;;;;;;5028289;28;20293;-81
2022/03/12 09:38:02;;;;;;;7.83;6.17;;;;;;;;;;5028166;28;20687;-81
2022/03/12 09:40:30;;;;;;;4.57;3.87;;;;;;;;;;5028643;28;20203;-81
2022/03/12 09:42:57;;;;;;;6.53;5.20;;;;;;;;;;5028304;28;20203;-81
2022/03/12 09:45:25;;;;;;;4.77;4.30;;;;;;;;;;5028453;28;20313;-81
2022/03/12 09:47:53;;;;;;;3.83;3.53;;;;;;;;;;5028961;28;20199;-81
2022/03/12 09:50:22;;;;;;;5.90;4.40;;;;;;;;;;5031742;28;20203;-81
2022/03/12 09:52:50;;;;;;;4.77;3.70;;;;;;;;;;5031595;28;20211;-81
2022/03/12 09:55:19;;;;;;;4.23;3.80;;;;;;;;;;5031511;28;20667;-80
2022/03/12 09:57:46;;;;;;;4.50;3.87;;;;;;;;;;5031399;28;20199;-81
2022/03/12 10:00:15;;;;;;;5.07;4.60;;;;;;;;;;5031905;28;20195;-81
2022/03/12 10:02:42;;;;;;;5.10;4.30;;;;;;;;;;5031630;28;20627;-81
2022/03/12 10:05:11;;;;;;;4.43;4.03;;;;;;;;;;5031702;28;20231;-81
2022/03/12 10:07:41;;;;;;;4.13;3.70;;;;;;;;;;5031688;28;20271;-81
2022/03/12 10:10:12;;;;;;;3.07;2.87;;;;;;;;;;5031925;28;20728;-81
2022/03/12 10:12:39;;;;;;;4.17;3.67;;;;;;;;;;5031078;28;20222;-81
2022/03/12 10:15:07;;;;;;;4.17;3.77;;;;;;;;;;5031545;28;20272;-81
2022/03/12 10:17:34;;;;;;;4.37;3.97;;;;;;;;;;5030905;28;20322;-81
2022/03/12 10:20:03;;;;;;;5.70;4.93;;;;;;;;;;5031314;28;20235;-80
2022/03/12 10:22:32;;;;;;;4.50;3.47;;;;;;;;;;5031081;28;20256;-82
2022/03/12 10:25:01;;;;;;;4.73;4.07;;;;;;;;;;5031543;28;20234;-81
2022/03/12 10:27:28;;;;;;;5.00;4.50;;;;;;;;;;5031204;28;20202;-81
2022/03/12 10:29:56;;;;;;;8.77;4.27;;;;;;;;;;5030929;28;20647;-81
2022/03/12 10:32:25;;;;;;;4.77;4.03;;;;;;;;;;5031008;28;20234;-81
2022/03/12 10:34:56;;;;;;;5.37;4.13;;;;;;;;;;5031129;28;20234;-81
2022/03/12 10:37:25;;;;;;;5.57;4.27;;;;;;;;;;5030853;28;20191;-81
2022/03/12 10:40:09;;;;;;;8.47;3.87;;;;;;;;;;5030769;28;20230;-81
2022/03/12 10:42:38;;;;;;;7.20;3.80;;;;;;;;;;5031372;28;20278;-81
2022/03/12 10:45:08;;;;;;;5.73;4.30;;;;;;;;;;5031143;28;20650;-81
2022/03/12 10:47:41;;;;;;;5.60;4.63;;;;;;;;;;5031073;28;20195;-81
2022/03/12 10:50:11;;;;;;;4.10;3.27;;;;;;;;;;5031001;28;20193;-81
2022/03/12 10:52:45;;;;;;;6.30;5.70;;;;;;;;;;5030919;28;20586;-81
2022/03/12 10:55:19;;;;;;;3.30;3.00;;;;;;;;;;5030852;28;20639;-80
2022/03/12 10:57:58;;;;;;;4.77;3.57;;;;;;;;;;5030658;28;20187;-81
2022/03/12 11:00:25;;;;;;;13.37;9.77;;;;;;;;;;5029554;28;20274;-80
2022/03/12 11:02:55;;;;;;;5.83;5.20;;;;;;;;;;5030519;28;20642;-80
2022/03/12 11:05:26;;;;;;;6.30;5.37;;;;;;;;;;5030603;28;20223;-80
2022/03/12 11:07:53;;;;;;;7.20;6.47;;;;;;;;;;5030176;28;20195;-79
2022/03/12 11:10:24;;;;;;;6.20;5.23;;;;;;;;;;5030870;28;20203;-80
2022/03/12 11:12:55;;;;;;;3.93;3.53;;;;;;;;;;5030435;28;20577;-80
2022/03/12 11:15:25;;;;;;;6.03;3.67;;;;;;;;;;5030557;28;20655;-80
2022/03/12 11:17:53;;;;;;;5.80;4.60;;;;;;;;;;5029988;28;20420;-80
2022/03/12 11:20:30;;;;;;;8.67;6.97;;;;;;;;;;5030540;28;20281;-80
2022/03/12 11:23:07;;;;;;;12.87;8.10;;;;;;;;;;5030176;28;20187;-80
2022/03/12 11:25:37;;;;;;;16.13;11.03;;;;;;;;;;5029971;28;20298;-79
2022/03/12 11:28:19;;;;;;;5.57;4.43;;;;;;;;;;5030000;28;20696;-80
2022/03/12 11:30:46;;;;;;;12.17;9.23;;;;;;;;;;5030536;28;20236;-80
2022/03/12 11:33:14;;;;;;;11.70;7.10;;;;;;;;;;5030208;28;20203;-80
2022/03/12 11:35:45;;;;;;;11.43;8.30;;;;;;;;;;5029907;28;20663;-80
2022/03/12 11:38:13;;;;;;;8.00;7.10;;;;;;;;;;5029872;28;20636;-80
2022/03/12 11:40:43;;;;;;;6.47;5.77;;;;;;;;;;5029962;28;20199;-81
2022/03/12 11:43:22;;;;;;;8.60;6.10;;;;;;;;;;5029875;28;20206;-81
2022/03/12 11:45:49;;;;;;;7.03;5.30;;;;;;;;;;5029939;28;20309;-80
2022/03/12 11:48:17;;;;;;;6.07;5.30;;;;;;;;;;5030010;28;20632;-80
2022/03/12 11:50:45;;;;;;;8.07;6.37;;;;;;;;;;5030205;28;20636;-80
2022/03/12 11:53:17;;;;;;;4.57;4.17;;;;;;;;;;5029965;28;20191;-80
2022/03/12 11:55:49;;;;;;;5.03;3.97;;;;;;;;;;5029649;28;20190;-80
2022/03/12 11:58:17;;;;;;;6.07;4.93;;;;;;;;;;5029658;28;20187;-80
2022/03/12 12:00:46;;;;;;;4.50;4.10;;;;;;;;;;5030152;28;20663;-81
2022/03/12 12:03:14;;;;;;;8.77;4.73;;;;;;;;;;5029926;28;20202;-81
2022/03/12 12:05:43;;;;;;;5.13;4.37;;;;;;;;;;5031301;28;20233;-81
2022/03/12 12:08:12;;;;;;;6.90;4.60;;;;;;;;;;5041257;28;20209;-81
2022/03/12 12:10:41;;;;;;;5.17;4.67;;;;;;;;;;5045875;28;20198;-81
2022/03/12 12:13:13;;;;;;;5.13;4.10;;;;;;;;;;5038026;28;20207;-81
2022/03/12 12:15:41;;;;;;;5.00;4.50;;;;;;;;;;5029647;28;20240;-90
2022/03/12 12:18:12;;;;;;;6.47;4.30;;;;;;;;;;5035302;28;20245;-81
2022/03/12 12:20:40;;;;;;;5.03;4.53;;;;;;;;;;5047178;28;20244;-81
2022/03/12 12:23:07;;;;;;;6.37;5.03;;;;;;;;;;5049257;28;20200;-82
2022/03/12 12:25:36;;;;;;;4.80;3.80;;;;;;;;;;5049242;28;20221;-82
2022/03/12 12:28:16;;;;;;;5.80;4.23;;;;;;;;;;5049100;28;20198;-82
2022/03/12 12:30:45;;;;;;;6.03;4.20;;;;;;;;;;5049047;28;20243;-82
2022/03/12 12:33:22;;;;;;;3.97;3.57;;;;;;;;;;5049096;28;20662;-82
2022/03/12 12:35:50;;;;;;;5.07;4.30;;;;;;;;;;5048903;28;20182;-82
2022/03/12 12:38:20;;;;;;;4.83;4.33;;;;;;;;;;5049026;28;20198;-81
2022/03/12 12:40:49;;;;;;;4.63;4.13;;;;;;;;;;5048522;28;20239;-82
2022/03/12 12:43:19;;;;;;;4.23;3.83;;;;;;;;;;5048916;28;20593;-82
2022/03/12 12:46:10;;;;;;;6.10;4.67;;;;;;;;;;5048694;28;20229;-82
2022/03/12 12:48:41;;;;;;;4.80;4.23;;;;;;;;;;5048689;28;20241;-82
2022/03/12 12:51:11;;;;;;;5.50;4.50;;;;;;;;;;5049178;28;20558;-81
2022/03/12 12:53:39;;;;;;;4.97;4.23;;;;;;;;;;5049540;28;20190;-82
2022/03/12 12:56:25;;;;;;;6.50;4.17;;;;;;;;;;5048787;28;20220;-82
2022/03/12 12:59:12;;;;;;;3.97;3.47;;;;;;;;;;5048582;28;20201;-81
2022/03/12 13:01:52;;;;;;;4.77;3.67;;;;;;;;;;5048834;28;20186;-82
2022/03/12 13:04:47;;;;;;;4.07;3.60;;;;;;;;;;5048557;28;20201;-82
2022/03/12 13:07:26;;;;;;;7.43;5.50;;;;;;;;;;5048540;28;20194;-82
2022/03/12 13:09:58;;;;;;;6.03;5.23;;;;;;;;;;5041128;28;20202;-82
2022/03/12 13:12:53;;;;;;;5.73;4.00;;;;;;;;;;5029019;28;20202;-82
2022/03/12 13:15:24;;;;;;;3.97;3.57;;;;;;;;;;4982293;28;20191;-82
2022/03/12 13:17:54;;;;;;;4.63;4.03;;;;;;;;;;5028518;28;20719;-82
2022/03/12 13:20:45;;;;;;;5.60;4.97;;;;;;;;;;5028549;28;20716;-83
2022/03/12 13:23:13;;;;;;;10.83;7.20;;;;;;;;;;5034850;27;20205;-82
2022/03/12 13:25:52;;;;;;;7.17;5.67;;;;;;;;;;5051538;28;20709;-82
2022/03/12 13:28:39;;;;;;;6.83;6.13;;;;;;;;;;5031721;28;20225;-82
2022/03/12 13:31:28;;;;;;;8.90;7.67;;;;;;;;;;5031592;28;20231;-81
2022/03/12 13:34:00;;;;;;;8.10;6.77;;;;;;;;;;5031832;28;20223;-82
2022/03/12 13:36:30;;;;;;;10.50;9.30;;;;;;;;;;5031715;28;20183;-81
2022/03/12 13:38:57;;;;;;;11.07;9.13;;;;;;;;;;5031767;28;20198;-82
2022/03/12 13:41:24;;;;;;;25.33;20.20;;;;;;;;;;5031741;28;20202;-82
2022/03/12 13:43:53;;;;;;;6.83;5.50;;;;;;;;;;5031630;28;20199;-82
2022/03/12 13:46:23;;;;;;;9.60;6.97;;;;;;;;;;5031677;28;20222;-82
2022/03/12 13:49:04;;;;;;;6.60;6.00;;;;;;;;;;5031622;28;20199;-81
2022/03/12 13:51:33;;;;;;;8.53;7.07;;;;;;;;;;5031475;28;20199;-82
2022/03/12 13:54:01;;;;;;;5.73;5.03;;;;;;;;;;5031528;28;20259;-82
2022/03/12 13:56:29;;;;;;;4.90;4.27;;;;;;;;;;5031603;28;20198;-82
2022/03/12 13:59:03;;;;;;;5.63;4.87;;;;;;;;;;5031469;28;20256;-82
2022/03/12 14:01:34;;;;;;;5.93;5.30;;;;;;;;;;5031354;28;20191;-82
2022/03/12 14:04:03;;;;;;;5.93;4.87;;;;;;;;;;5031700;28;20195;-82
2022/03/12 14:06:35;;;;;;;6.03;4.93;;;;;;;;;;5031423;28;20226;-82
2022/03/12 14:09:04;;;;;;;6.33;4.83;;;;;;;;;;5031313;28;20197;-82
2022/03/12 14:11:34;;;;;;;6.87;5.67;;;;;;;;;;5031124;28;20202;-82
2022/03/12 14:14:02;;;;;;;14.17;9.17;;;;;;;;;;5031286;28;20284;-82
2022/03/12 14:16:29;;;;;;;5.07;4.57;;;;;;;;;;5031127;28;20256;-82
2022/03/12 14:19:00;;;;;;;14.07;5.67;;;;;;;;;;5031568;28;20202;-82
2022/03/12 14:21:37;;;;;;;8.10;6.63;;;;;;;;;;5031593;28;20187;-82
2022/03/12 14:24:12;;;;;;;6.43;5.53;;;;;;;;;;5030882;28;20191;-82
2022/03/12 14:26:54;;;;;;;7.23;5.83;;;;;;;;;;5031588;28;20202;-82
2022/03/12 14:29:25;;;;;;;6.57;5.90;;;;;;;;;;5031014;28;20950;-82
2022/03/12 14:31:53;;;;;;;7.03;6.33;;;;;;;;;;5031162;28;20183;-82
2022/03/12 14:34:20;;;;;;;8.73;7.27;;;;;;;;;;5030408;28;20245;-82
2022/03/12 14:36:49;;;;;;;7.07;5.73;;;;;;;;;;5031345;28;20703;-82
2022/03/12 14:39:17;;;;;;;6.73;5.37;;;;;;;;;;5030864;28;20293;-82
2022/03/12 14:41:46;;;;;;;6.33;4.77;;;;;;;;;;5030784;28;20752;-82
2022/03/12 14:44:14;;;;;;;9.50;5.20;;;;;;;;;;5030718;28;20222;-82
2022/03/12 14:46:45;;;;;;;6.20;5.57;;;;;;;;;;5031109;28;20258;-82
2022/03/12 14:49:27;;;;;;;5.20;4.70;;;;;;;;;;5030936;28;20274;-82
2022/03/12 14:51:57;;;;;;;7.77;4.83;;;;;;;;;;5030514;28;20203;-82
2022/03/12 14:54:30;;;;;;;6.60;5.53;;;;;;;;;;5030615;28;20190;-83